webcam facing south webcam facing south


webcam city Arachova webcam city Arachova


webcam city Arachova webcam city Arachova


Thunder radar blitzortung!


Rain radar rain snow radar


Visit our other sites:

Hotel Skamnos

Arachova Weather Station

Skamnos Weather Station

Skamnos Weather2

Arachova Weather2

WU Skamnos

WU Arachova


Other Weather Sites:

Parnassos Snow Forecast

Parnassos Snow Report

Kelaria 1950m

Kelaria 2240m

Fterolaka 2080m



No particular awareness of the weather is required.    There are no Weather-warnings

Nearby METAR Reports

  
1089 - Arachova Meteo, Greece
Distance from station: N 1km
Updated: 30-03-2017 05:34
Overcast
Overcast  
 Wind from calm
Wind: Calm
Temperature:  9°C
Dew Point:  2°C
Humidity:  62%
Barometer:  1016 hPa
Clouds:  Overcast
Visibility:  10 km
Cloud details:  Overcast 792 m
2017/03/30 02:34 1089 300234Z 00000KT 9999 OVC026 09/02 Q1016
1155 - Arachova2, Greece
Distance from station: N 1km
Updated: 30-03-2017 05:35
Overcast
Overcast  
 Wind from SE
Wind: SE 4 km/h
Temperature:  7°C
Dew Point:  2°C
Humidity:  71%
Barometer:  1018 hPa
Clouds:  Overcast
Visibility:  10 km
Cloud details:  Overcast 640 m
2017/03/30 02:35 1155 300235Z 13502KT 9999 OVC021 07/02 Q1018
1509 - Skamnos Parnassos 1250m, Greece
Distance from station: N 10km
Updated: 30-03-2017 05:50

  
 
Visibility:  0 mile
2017/03/30 02:50 1509 300250Z 0005KT 9999 SCT024 05/M01 Q1025
1250 - Parnassos Kelaria 1950m, Greece
Distance from station: NNE 10km
Updated: 30-03-2017 05:50
Partly Cloudy
Partly Cloudy  
 Wind from NE
Wind: NE 26 km/h
Temperature:  0°C
Wind Chill:  -6°C
Dew Point:  -2°C
Humidity:  87%
Barometer:  1021 hPa
Clouds:  Partly Cloudy
Visibility:  8 km
Cloud details:  Partly Cloudy 2438 m
2017/03/30 02:50 1250 300250Z 04514KT 8000 SCT080 00/M02 Q1021
1126 - Parnassos Fterolaka 2080m, Greece
Distance from station: NNE 10km
Updated: 21-03-2015 01:04
NOT Current
Few Clouds
Few Clouds  
 Wind from calm
Wind: Calm
Temperature:  -11°C
Dew Point:  -11°C
Humidity:  100%
Barometer:  1019 hPa
Clouds:  Few Clouds
Visibility:  6 km
Cloud details:  Few Clouds 305 m
2015/03/20 23:04 1126 202304Z 00000KT 6000 FEW010 M11/M11 Q1019
1382 - Parnassos Helcules 2240m, Greece
Distance from station: NNE 10km
Updated: 20-04-2015 13:20
NOT Current
Fog
Fog  
 Wind from SW
Wind: SW 7 km/h
Temperature:  1°C
Wind Chill:  -2°C
Dew Point:  1°C
Humidity:  100%
Barometer:  1009 hPa
Summary:  Fog
Visibility:  5 km
2015/04/20 10:20 1382 201020Z 22504KT 5000 FG 01/01 Q1009
1219 - Anrikyra, Greece
Distance from station: S 30km
Updated: 23-03-2017 23:49
NOT Current
Clear
Clear  
 Wind from NW
Wind: NW 15 km/h
Temperature:  15°C
Dew Point:  7°C
Humidity:  59%
Barometer:  1019 hPa
Clouds:  Clear
Visibility:  10 km
2017/03/23 21:49 1219 232149Z 31508KT 9999 SKC 15/07 Q1019
1015 - Galaxeidi, Greece
Distance from station: S 30km
Updated: 04-03-2017 13:19
NOT Current
Few Clouds
Few Clouds  
 Wind from SSE
Wind: SSE 7 km/h
Temperature:  16°C
Dew Point:  10°C
Humidity:  68%
Barometer:  1031 hPa
Clouds:  Few Clouds
Visibility:  9 km
Cloud details:  Few Clouds 792 m
2017/03/04 11:19 1015 041119Z 15704KT 9000 FEW026 16/10 Q1031
1088 - Amfikleia, Greece
Distance from station: N 20km
Updated: 30-03-2017 05:49
Partly Cloudy
Partly Cloudy  
 Wind from calm
Wind: Calm
Temperature:  9°C
Dew Point:  4°C
Humidity:  71%
Barometer:  1018 hPa
Clouds:  Partly Cloudy
Visibility:  9 km
Cloud details:  Partly Cloudy 640 m
2017/03/30 02:49 1088 300249Z 00000KT 9000 SCT021 09/04 Q1018
1337 - Polydroso, Greece
Distance from station: N 20km
Updated: 30-03-2017 05:50
Partly Cloudy
Partly Cloudy  
 Wind from calm
Wind: Calm
Temperature:  10°C
Dew Point:  4°C
Humidity:  67%
Barometer:  1018 hPa
Clouds:  Partly Cloudy
Visibility:  10 km
Cloud details:  Partly Cloudy 701 m
2017/03/30 02:50 1337 300250Z 00000KT 9999 SCT023 10/04 Q1018

Script developed by  Saratoga-weather.org Adapted for the template by  Weerstation Leuven